• Join FlightAware (Why Join?)
  • Login
  • US Flag 
05:26PM EDT


 

Airport Tracker/Info


-or-


 

Live Flight TrackerFlight Track Log ✈ AMF1961 ✈ 18-Sep-2013 ✈ KBLI - KBFI

Flight Track Log - Related Links

Times and Time Zones

All times are in EDT time to prevent confusion due to time zone crossing. See the AMF1961 flight status page for this flight to view local times or setup timezone preferences in your user account.

Time Position Orientation Groundspeed Altitude Reporting Facility
EDT Latitude Longitude Course Direction KTS MPH feet Rate Location/Type
09:00PM 48.7667 -122.5333 213° Southwest 110 127 900  Level Vancouver Center
09:01PM 48.7333 -122.5667 213° Southwest 150 173 2,800 1,740 Climbing Vancouver Center
09:02PM 48.6833 -122.5667 180° South 170 196 4,400 1,080 Climbing Vancouver Center
09:03PM 48.6333 -122.5833 192° South 210 242 5,000 240 Climbing Vancouver Center
09:04PM 48.5928 -122.5958 192° South 251 289 4,900  Descending Seattle Center
09:05PM 48.5175 -122.6058 185° South 257 296 5,000 60 Climbing Seattle Center
09:06PM 48.4867 -122.6067 181° South 269 310 5,000  Level Seattle Center
09:06PM 48.4372 -122.6156 187° South 253 291 5,000  Level Seattle Center
09:07PM 48.4225 -122.6175 185° South 235 270 5,000  Level Seattle Center
09:07PM 48.3683 -122.6250 185° South 251 289 5,000  Level Seattle Center
09:08PM 48.3500 -122.6269 184° South 251 289 5,000  Level Seattle Center
09:08PM 48.3014 -122.6336 185° South 259 298 5,000  Level Seattle Center
09:09PM 48.2697 -122.6389 186° South 253 291 5,000  Level Seattle Center
09:09PM 48.2372 -122.6439 186° South 255 293 5,000  Level Seattle Center
09:10PM 48.1953 -122.6503 186° South 252 290 5,000  Level Seattle Center
09:10PM 48.1578 -122.6561 186° South 251 289 5,000  Level Seattle Center
09:11PM 48.1256 -122.6606 185° South 253 291 5,000  Level Seattle Center
09:11PM 48.0889 -122.6656 185° South 251 289 5,000  Level Seattle Center
09:12PM 48.0567 -122.6717 187° South 250 288 5,000  Level Seattle Center
09:12PM 48.0206 -122.6781 187° South 249 287 5,000  Level Seattle Center
09:13PM 47.9878 -122.6828 186° South 250 288 5,000  Level Seattle Center
09:13PM 47.9578 -122.6678 161° South 253 291 5,000 -120 Level Seattle Center
09:14PM 47.9211 -122.6381 151° Southeast 246 283 4,900 -120 Descending Seattle Center
09:14PM 47.8989 -122.6175 148° Southeast 250 288 4,900 -420 Level Seattle Center
09:15PM 47.8614 -122.5853 150° Southeast 248 285 4,500 -1,020 Descending Seattle Center
09:15PM 47.8372 -122.5658 152° Southeast 245 282 3,900 -1,380 Descending Seattle Center
09:16PM 47.8039 -122.5342 147° Southeast 242 278 3,100 -840 Descending Seattle Center
09:16PM 47.7833 -122.5194 154° Southeast 220 253 3,100 -240 Level Seattle Center
09:17PM 47.7542 -122.4939 149° Southeast 209 241 2,900 -720 Descending Seattle Center
09:17PM 47.7358 -122.4797 153° Southeast 197 227 2,400 -840 Descending Seattle Center
09:18PM 47.7097 -122.4564 149° Southeast 188 216 2,100 -300 Descending Seattle Center
09:18PM 47.6925 -122.4411 149° Southeast 166 191 2,100  Level Seattle Center
09:19PM 47.6669 -122.4189 150° Southeast 169 194 2,100 -180 Level Seattle Center
09:19PM 47.6483 -122.4061 155° Southeast 164 189 1,900 -540 Descending Seattle Center
09:20PM 47.6278 -122.3864 147° Southeast 163 188 1,600 -540 Descending Seattle Center
09:21PM 47.6106 -122.3711 149° Southeast 161 185 1,400 -420 Descending Seattle Center
09:21PM 47.5894 -122.3536 151° Southeast 161 185 1,200 -600 Descending Seattle Center
09:22PM 47.5717 -122.3400 153° Southeast 151 174 800 -840 Descending Seattle Center
09:22PM 47.5544 -122.3242 148° Southeast 149 171 400 -840 Descending Seattle Center